Time;durP1;ratioP1;P1;durP2;ratioP2;P2;SDS_P1;SDS_P2;PMS_P1;PMS_P2;Temp;Humidity;BMP_temperature;BMP_pressure;BME280_temperature;BME280_humidity;BME280_pressure;Samples;Min_cycle;Max_cycle;Signal;HPM_P1;HPM_P2
2020/12/01 00:02:06;;;;;;;;;;;;;;;;;;4994548;28;20028;-64
2020/12/01 00:04:33;;;;;;;;;;;;;;;;;;4993467;28;19932;-64
2020/12/01 00:07:00;;;;;;;;;;;;;;;;;;4994624;28;19938;-66
2020/12/01 00:09:27;;;;;;;;;;;;;;;;;;4999565;28;19925;-64
2020/12/01 00:11:54;;;;;;;;;;;;;;;;;;4998719;28;19932;-64
2020/12/01 00:14:21;;;;;;;;;;;;;;;;;;4993823;28;20360;-64
2020/12/01 00:16:49;;;;;;;;;;;;;;;;;;4987909;28;19936;-64
2020/12/01 00:19:16;;;;;;;;;;;;;;;;;;5007145;28;19983;-64
2020/12/01 00:21:43;;;;;;;;;;;;;;;;;;4999927;28;19926;-64
2020/12/01 00:24:10;;;;;;;;;;;;;;;;;;4993776;28;20289;-64
2020/12/01 00:26:37;;;;;;;;;;;;;;;;;;4993484;28;19936;-64
2020/12/01 00:29:04;;;;;;;;;;;;;;;;;;4993176;28;20141;-64
2020/12/01 00:31:31;;;;;;;;;;;;;;;;;;4993745;28;19932;-65
2020/12/01 00:33:58;;;;;;;;;;;;;;;;;;4993513;28;20464;-64
2020/12/01 00:36:25;;;;;;;;;;;;;;;;;;4993561;28;19936;-64
2020/12/01 00:38:52;;;;;;;;;;;;;;;;;;4992868;28;20468;-63
2020/12/01 00:41:20;;;;;;;;;;;;;;;;;;4992261;28;19953;-64
2020/12/01 00:43:47;;;;;;;;;;;;;;;;;;4992313;28;20386;-64
2020/12/01 00:46:14;;;;;;;;;;;;;;;;;;4992992;28;20016;-65
2020/12/01 00:48:41;;;;;;;;;;;;;;;;;;4983560;28;20400;-64
2020/12/01 00:51:08;;;;;;;;;;;;;;;;;;4974152;28;20016;-64
2020/12/01 00:53:35;;;;;;;;;;;;;;;;;;4993689;28;20440;-64
2020/12/01 00:56:02;;;;;;;;;;;;;;;;;;4992576;28;20016;-64
2020/12/01 00:58:30;;;;;;;;;;;;;;;;;;4993350;28;19969;-65
2020/12/01 01:00:57;;;;;;;;;;;;;;;;;;4993326;28;20020;-66
2020/12/01 01:03:24;;;;;;;;;;;;;;;;;;4992847;28;20444;-65
2020/12/01 01:05:51;;;;;;;;;;;;;;;;;;4992480;28;20016;-65
2020/12/01 01:08:18;;;;;;;;;;;;;;;;;;4992897;28;19932;-65
2020/12/01 01:10:47;;;;;;;;;;;;;;;;;;5002736;28;19936;-64
2020/12/01 01:13:14;;;;;;;;;;;;;;;;;;4993184;28;20012;-66
2020/12/01 01:15:41;;;;;;;;;;;;;;;;;;4992466;28;20334;-65
2020/12/01 01:18:08;;;;;;;;;;;;;;;;;;4993720;28;19933;-65
2020/12/01 01:20:35;;;;;;;;;;;;;;;;;;4992649;28;20288;-64
2020/12/01 01:23:02;;;;;;;;;;;;;;;;;;4992821;28;19932;-64
2020/12/01 01:25:29;;;;;;;;;;;;;;;;;;4992203;28;19969;-66
2020/12/01 01:27:56;;;;;;;;;;;;;;;;;;4993239;28;19926;-65
2020/12/01 01:30:24;;;;;;;;;;;;;;;;;;4992693;28;20012;-64
2020/12/01 01:32:51;;;;;;;;;;;;;;;;;;4993176;28;19936;-64
2020/12/01 01:35:18;;;;;;;;;;;;;;;;;;4991150;28;19948;-64
2020/12/01 01:37:45;;;;;;;;;;;;;;;;;;4992320;28;19926;-65
2020/12/01 01:40:12;;;;;;;;;;;;;;;;;;4992564;28;19929;-65
2020/12/01 01:42:39;;;;;;;;;;;;;;;;;;4992797;28;20455;-64
2020/12/01 01:45:06;;;;;;;;;;;;;;;;;;4992308;28;20382;-64
2020/12/01 01:47:34;;;;;;;;;;;;;;;;;;4992086;28;19926;-64
2020/12/01 01:50:01;;;;;;;;;;;;;;;;;;4973167;28;20477;-64
2020/12/01 01:52:28;;;;;;;;;;;;;;;;;;4988287;28;19926;-64
2020/12/01 01:54:55;;;;;;;;;;;;;;;;;;4992235;28;19936;-64
2020/12/01 01:57:22;;;;;;;;;;;;;;;;;;4992629;28;19926;-64
2020/12/01 01:59:49;;;;;;;;;;;;;;;;;;4992535;28;19925;-64
2020/12/01 02:04:52;;;;;;;;;;;;;;;;;;4967391;23;20358;-60
2020/12/01 02:07:19;;;;;;;;;;;;;;;;;;4976355;28;19926;-60
2020/12/01 02:09:46;;;;;;;;;;;;;;;;;;4972261;28;20087;-61
2020/12/01 02:12:13;;;;;;;;;;;;;;;;;;4975921;28;20017;-61
2020/12/01 02:14:40;;;;;;;;;;;;;;;;;;4975215;28;19926;-60
2020/12/01 02:17:08;;;;;;;;;;;;;;;;;;4976350;28;20428;-60
2020/12/01 02:19:35;;;;;;;;;;;;;;;;;;4975688;28;19926;-60
2020/12/01 02:22:02;;;;;;;;;;;;;;;;;;4975651;28;19941;-59
2020/12/01 02:24:30;;;;;;;;;;;;;;;;;;4975038;28;19928;-60
2020/12/01 02:26:59;;;;;;;;;;;;;;;;;;4976201;28;20397;-59
2020/12/01 02:29:26;;;;;;;;;;;;;;;;;;4975810;28;19926;-60
2020/12/01 02:31:53;;;;;;;;;;;;;;;;;;4975703;28;20013;-60
2020/12/01 02:34:20;;;;;;;;;;;;;;;;;;4988098;28;19932;-59
2020/12/01 02:36:47;;;;;;;;;;;;;;;;;;4992644;28;19934;-59
2020/12/01 02:39:15;;;;;;;;;;;;;;;;;;4976681;28;20008;-61
2020/12/01 02:41:42;;;;;;;;;;;;;;;;;;4975127;28;19926;-60
2020/12/01 02:44:09;;;;;;;;;;;;;;;;;;4975321;28;19972;-60
2020/12/01 02:46:37;;;;;;;;;;;;;;;;;;4975718;28;19932;-60
2020/12/01 02:49:04;;;;;;;;;;;;;;;;;;4969692;28;20021;-59
2020/12/01 02:51:31;;;;;;;;;;;;;;;;;;4976369;28;20016;-60
2020/12/01 02:53:58;;;;;;;;;;;;;;;;;;4974654;28;20293;-60
2020/12/01 02:56:25;;;;;;;;;;;;;;;;;;4974724;28;19926;-60
2020/12/01 02:58:52;;;;;;;;;;;;;;;;;;4974978;28;20346;-61
2020/12/01 03:01:19;;;;;;;;;;;;;;;;;;4974994;28;19926;-60
2020/12/01 03:03:46;;;;;;;;;;;;;;;;;;4974299;28;20413;-60
2020/12/01 03:06:14;;;;;;;;;;;;;;;;;;4975391;28;19936;-62
2020/12/01 03:08:41;;;;;;;;;;;;;;;;;;4974420;28;20442;-60
2020/12/01 03:11:08;;;;;;;;;;;;;;;;;;4975628;28;19930;-60
2020/12/01 03:13:35;;;;;;;;;;;;;;;;;;4973969;28;19930;-60
2020/12/01 03:16:05;;;;;;;;;;;;;;;;;;4974280;28;19933;-60
2020/12/01 03:18:34;;;;;;;;;;;;;;;;;;4974596;28;20351;-60
2020/12/01 03:21:02;;;;;;;;;;;;;;;;;;4958760;28;19993;-61
2020/12/01 03:23:29;;;;;;;;;;;;;;;;;;4964284;28;19970;-60
2020/12/01 03:25:56;;;;;;;;;;;;;;;;;;4974701;28;19932;-61
2020/12/01 03:28:23;;;;;;;;;;;;;;;;;;4973921;28;19926;-60
2020/12/01 03:30:50;;;;;;;;;;;;;;;;;;4974726;28;19926;-59
2020/12/01 03:33:17;;;;;;;;;;;;;;;;;;4974408;28;20298;-61
2020/12/01 03:35:44;;;;;;;;;;;;;;;;;;4973674;28;20004;-61
2020/12/01 03:38:11;;;;;;;;;;;;;;;;;;4973876;28;20456;-60
2020/12/01 03:40:38;;;;;;;;;;;;;;;;;;4974472;28;19934;-60
2020/12/01 03:43:05;;;;;;;;;;;;;;;;;;4974123;28;19926;-60
2020/12/01 03:45:32;;;;;;;;;;;;;;;;;;4973387;28;19968;-61
2020/12/01 03:47:59;;;;;;;;;;;;;;;;;;4971248;28;19930;-62
2020/12/01 03:50:27;;;;;;;;;;;;;;;;;;4975101;28;19926;-60
2020/12/01 03:52:54;;;;;;;;;;;;;;;;;;4973876;28;20025;-60
2020/12/01 03:55:21;;;;;;;;;;;;;;;;;;4973719;28;19936;-60
2020/12/01 03:57:48;;;;;;;;;;;;;;;;;;4974242;28;19965;-60
2020/12/01 04:00:15;;;;;;;;;;;;;;;;;;4974245;28;19965;-60
2020/12/01 04:02:42;;;;;;;;;;;;;;;;;;4973297;28;19934;-60
2020/12/01 04:05:10;;;;;;;;;;;;;;;;;;4972920;28;20009;-60
2020/12/01 04:07:37;;;;;;;;;;;;;;;;;;4973805;28;19970;-59
2020/12/01 04:10:04;;;;;;;;;;;;;;;;;;4973139;28;20028;-61
2020/12/01 04:12:31;;;;;;;;;;;;;;;;;;4971064;28;20017;-60
2020/12/01 04:15:00;;;;;;;;;;;;;;;;;;4972355;28;19934;-60
2020/12/01 04:17:27;;;;;;;;;;;;;;;;;;4971617;28;19926;-60
2020/12/01 04:19:54;;;;;;;;;;;;;;;;;;4960048;28;19930;-61
2020/12/01 04:22:21;;;;;;;;;;;;;;;;;;4973457;28;19926;-60
2020/12/01 04:24:48;;;;;;;;;;;;;;;;;;4972549;28;19936;-60
2020/12/01 04:27:15;;;;;;;;;;;;;;;;;;4972380;28;20297;-61
2020/12/01 04:29:42;;;;;;;;;;;;;;;;;;4973869;28;20016;-60
2020/12/01 04:32:10;;;;;;;;;;;;;;;;;;4973480;28;19969;-60
2020/12/01 04:34:37;;;;;;;;;;;;;;;;;;4973358;28;20040;-61
2020/12/01 04:37:04;;;;;;;;;;;;;;;;;;4972797;28;19997;-60
2020/12/01 04:39:31;;;;;;;;;;;;;;;;;;4973208;28;20024;-61
2020/12/01 04:41:58;;;;;;;;;;;;;;;;;;4973765;28;20424;-61
2020/12/01 04:44:25;;;;;;;;;;;;;;;;;;4973000;28;20001;-60
2020/12/01 04:46:52;;;;;;;;;;;;;;;;;;4973575;28;19932;-60
2020/12/01 04:49:19;;;;;;;;;;;;;;;;;;4969420;28;19927;-60
2020/12/01 04:51:47;;;;;;;;;;;;;;;;;;4973200;28;20013;-60
2020/12/01 04:54:14;;;;;;;;;;;;;;;;;;4972201;28;20013;-60
2020/12/01 04:56:41;;;;;;;;;;;;;;;;;;4973893;28;19930;-60
2020/12/01 04:59:08;;;;;;;;;;;;;;;;;;4972375;28;19934;-60
2020/12/01 05:01:35;;;;;;;;;;;;;;;;;;4973462;28;20033;-60
2020/12/01 05:04:16;;;;;;;;;;;;;;;;;;4971909;28;19980;-60
2020/12/01 05:06:53;;;;;;;;;;;;;;;;;;4973031;28;19926;-60
2020/12/01 05:09:20;;;;;;;;;;;;;;;;;;4972555;28;20373;-60
2020/12/01 05:11:47;;;;;;;;;;;;;;;;;;4969113;28;20025;-61
2020/12/01 05:14:14;;;;;;;;;;;;;;;;;;4971423;28;19926;-61
2020/12/01 05:16:42;;;;;;;;;;;;;;;;;;4960870;28;19982;-60
2020/12/01 05:19:09;;;;;;;;;;;;;;;;;;4957309;28;19932;-61
2020/12/01 05:21:36;;;;;;;;;;;;;;;;;;4973398;28;20020;-60
2020/12/01 05:24:03;;;;;;;;;;;;;;;;;;4972766;28;19995;-60
2020/12/01 05:26:32;;;;;;;;;;;;;;;;;;4972360;28;19926;-61
2020/12/01 05:28:59;;;;;;;;;;;;;;;;;;4971867;28;19926;-60
2020/12/01 05:31:26;;;;;;;;;;;;;;;;;;4971336;28;19937;-58
2020/12/01 05:33:54;;;;;;;;;;;;;;;;;;4973028;28;20017;-58
2020/12/01 05:36:21;;;;;;;;;;;;;;;;;;4971943;28;19972;-59
2020/12/01 05:38:48;;;;;;;;;;;;;;;;;;4971919;28;19948;-59
2020/12/01 05:41:15;;;;;;;;;;;;;;;;;;4971974;28;20016;-59
2020/12/01 05:43:42;;;;;;;;;;;;;;;;;;4970471;28;19930;-58
2020/12/01 05:46:09;;;;;;;;;;;;;;;;;;4971327;28;19949;-59
2020/12/01 05:48:36;;;;;;;;;;;;;;;;;;4964267;28;19927;-58
2020/12/01 05:51:04;;;;;;;;;;;;;;;;;;4960080;28;19926;-58
2020/12/01 05:53:31;;;;;;;;;;;;;;;;;;4957365;28;20008;-59
2020/12/01 05:55:58;;;;;;;;;;;;;;;;;;4964976;28;20373;-59
2020/12/01 05:58:25;;;;;;;;;;;;;;;;;;4971002;28;19927;-59
2020/12/01 06:00:52;;;;;;;;;;;;;;;;;;4971128;28;19989;-58
2020/12/01 06:03:20;;;;;;;;;;;;;;;;;;4969509;28;20315;-59
2020/12/01 06:05:48;;;;;;;;;;;;;;;;;;4966971;28;19930;-58
2020/12/01 06:08:15;;;;;;;;;;;;;;;;;;4965736;28;19933;-60
2020/12/01 06:10:42;;;;;;;;;;;;;;;;;;4967970;28;20050;-59
2020/12/01 06:13:09;;;;;;;;;;;;;;;;;;4959924;28;19956;-60
2020/12/01 06:15:36;;;;;;;;;;;;;;;;;;4966850;28;20282;-59
2020/12/01 06:18:05;;;;;;;;;;;;;;;;;;4967155;28;20508;-59
2020/12/01 06:20:32;;;;;;;;;;;;;;;;;;4966487;28;19973;-59
2020/12/01 06:22:59;;;;;;;;;;;;;;;;;;4956219;28;19937;-60
2020/12/01 06:25:27;;;;;;;;;;;;;;;;;;4965688;28;19961;-60
2020/12/01 06:27:54;;;;;;;;;;;;;;;;;;4963393;28;20386;-59
2020/12/01 06:30:22;;;;;;;;;;;;;;;;;;4967214;28;19926;-61
2020/12/01 06:32:49;;;;;;;;;;;;;;;;;;4968032;28;20020;-58
2020/12/01 06:35:16;;;;;;;;;;;;;;;;;;4967841;28;20287;-58
2020/12/01 06:37:43;;;;;;;;;;;;;;;;;;4968974;28;19976;-60
2020/12/01 06:40:10;;;;;;;;;;;;;;;;;;4974909;28;19926;-59
2020/12/01 06:42:37;;;;;;;;;;;;;;;;;;4964564;28;20017;-58
2020/12/01 06:45:05;;;;;;;;;;;;;;;;;;4967304;28;20013;-59
2020/12/01 06:47:32;;;;;;;;;;;;;;;;;;4967448;28;19985;-60
2020/12/01 06:49:59;;;;;;;;;;;;;;;;;;4963835;28;19934;-59
2020/12/01 06:52:26;;;;;;;;;;;;;;;;;;4965138;28;19957;-59
2020/12/01 06:54:53;;;;;;;;;;;;;;;;;;4969621;28;19930;-59
2020/12/01 06:57:20;;;;;;;;;;;;;;;;;;4971040;28;20365;-59
2020/12/01 06:59:48;;;;;;;;;;;;;;;;;;4970363;28;19981;-59
2020/12/01 07:02:15;;;;;;;;;;;;;;;;;;4971623;28;20017;-60
2020/12/01 07:04:43;;;;;;;;;;;;;;;;;;4969538;28;19926;-59
2020/12/01 07:07:10;;;;;;;;;;;;;;;;;;4971405;28;19927;-59
2020/12/01 07:09:37;;;;;;;;;;;;;;;;;;4970767;28;19965;-59
2020/12/01 07:12:04;;;;;;;;;;;;;;;;;;4970746;28;19957;-59
2020/12/01 07:14:31;;;;;;;;;;;;;;;;;;4970128;28;19930;-60
2020/12/01 07:16:58;;;;;;;;;;;;;;;;;;4969873;28;19926;-60
2020/12/01 07:19:25;;;;;;;;;;;;;;;;;;4968059;28;19936;-61
2020/12/01 07:21:53;;;;;;;;;;;;;;;;;;4947389;28;20455;-59
2020/12/01 07:24:20;;;;;;;;;;;;;;;;;;4965346;28;19952;-60
2020/12/01 07:26:47;;;;;;;;;;;;;;;;;;4968831;28;19972;-61
2020/12/01 07:29:14;;;;;;;;;;;;;;;;;;4965511;28;19930;-60
2020/12/01 07:31:42;;;;;;;;;;;;;;;;;;4968512;28;20033;-60
2020/12/01 07:34:09;;;;;;;;;;;;;;;;;;4973534;28;20024;-59
2020/12/01 07:36:36;;;;;;;;;;;;;;;;;;4964048;28;20029;-60
2020/12/01 07:39:03;;;;;;;;;;;;;;;;;;4967714;28;20294;-60
2020/12/01 07:41:30;;;;;;;;;;;;;;;;;;4963271;28;19926;-60
2020/12/01 07:43:58;;;;;;;;;;;;;;;;;;4958662;28;20022;-60
2020/12/01 07:46:25;;;;;;;;;;;;;;;;;;4968320;28;19966;-60
2020/12/01 07:48:52;;;;;;;;;;;;;;;;;;4965247;28;19977;-60
2020/12/01 07:51:19;;;;;;;;;;;;;;;;;;4958145;28;20278;-60
2020/12/01 07:53:46;;;;;;;;;;;;;;;;;;4973377;28;19966;-60
2020/12/01 07:56:14;;;;;;;;;;;;;;;;;;4970284;28;20390;-60
2020/12/01 07:58:41;;;;;;;;;;;;;;;;;;4972756;28;20028;-60
2020/12/01 08:01:08;;;;;;;;;;;;;;;;;;4961622;28;19934;-60
2020/12/01 08:03:36;;;;;;;;;;;;;;;;;;4973134;28;19926;-59
2020/12/01 08:06:04;;;;;;;;;;;;;;;;;;4970682;28;19930;-60
2020/12/01 08:08:31;;;;;;;;;;;;;;;;;;4966116;28;19937;-59
2020/12/01 08:10:58;;;;;;;;;;;;;;;;;;4962341;28;19985;-59
2020/12/01 08:13:25;;;;;;;;;;;;;;;;;;4969896;28;19930;-59
2020/12/01 08:15:52;;;;;;;;;;;;;;;;;;4973634;28;19985;-59
2020/12/01 08:18:20;;;;;;;;;;;;;;;;;;4972841;28;20025;-60
2020/12/01 08:20:47;;;;;;;;;;;;;;;;;;4972899;28;19981;-60
2020/12/01 08:23:14;;;;;;;;;;;;;;;;;;4972091;28;19930;-59
2020/12/01 08:25:44;;;;;;;;;;;;;;;;;;4972778;28;19926;-60
2020/12/01 08:28:11;;;;;;;;;;;;;;;;;;4972746;28;19980;-59
2020/12/01 08:30:38;;;;;;;;;;;;;;;;;;4969629;28;20369;-59
2020/12/01 08:33:06;;;;;;;;;;;;;;;;;;4967544;28;19930;-59
2020/12/01 08:35:35;;;;;;;;;;;;;;;;;;4972730;28;19934;-60
2020/12/01 08:38:03;;;;;;;;;;;;;;;;;;4964514;28;19996;-59
2020/12/01 08:40:30;;;;;;;;;;;;;;;;;;4968364;28;19926;-60
2020/12/01 08:42:58;;;;;;;;;;;;;;;;;;4971757;28;19967;-59
2020/12/01 08:45:25;;;;;;;;;;;;;;;;;;4962608;28;19989;-59
2020/12/01 08:47:53;;;;;;;;;;;;;;;;;;4968359;28;20382;-60
2020/12/01 08:50:20;;;;;;;;;;;;;;;;;;4971791;28;20009;-61
2020/12/01 08:52:47;;;;;;;;;;;;;;;;;;4969989;28;19927;-61
2020/12/01 08:55:15;;;;;;;;;;;;;;;;;;4966052;28;19930;-59
2020/12/01 08:57:42;;;;;;;;;;;;;;;;;;4970793;28;20187;-59
2020/12/01 09:00:22;;;;;;;;;;;;;;;;;;4969364;28;20047;-59
2020/12/01 09:02:50;;;;;;;;;;;;;;;;;;4971062;28;20283;-59
2020/12/01 09:05:17;;;;;;;;;;;;;;;;;;4969290;28;19926;-60
2020/12/01 09:07:45;;;;;;;;;;;;;;;;;;4969413;28;20017;-61
2020/12/01 09:10:12;;;;;;;;;;;;;;;;;;4960984;28;19934;-59
2020/12/01 09:12:44;;;;;;;;;;;;;;;;;;4962635;28;19938;-60
2020/12/01 09:15:17;;;;;;;;;;;;;;;;;;4967961;28;20343;-60
2020/12/01 09:17:51;;;;;;;;;;;;;;;;;;4970907;28;19940;-60
2020/12/01 09:23:00;;;;;;;;;;;;;;;;;;4961401;28;19926;-59
2020/12/01 09:25:28;;;;;;;;;;;;;;;;;;4969714;28;20302;-59
2020/12/01 09:27:55;;;;;;;;;;;;;;;;;;4968407;28;20330;-59
2020/12/01 09:30:22;;;;;;;;;;;;;;;;;;4967306;28;19926;-60
2020/12/01 09:32:50;;;;;;;;;;;;;;;;;;4969542;28;19937;-60
2020/12/01 09:35:17;;;;;;;;;;;;;;;;;;4969235;28;19938;-59
2020/12/01 09:37:44;;;;;;;;;;;;;;;;;;4968064;28;20037;-61
2020/12/01 09:40:12;;;;;;;;;;;;;;;;;;4963914;28;19989;-59
2020/12/01 09:42:40;;;;;;;;;;;;;;;;;;4972872;28;19982;-60
2020/12/01 09:45:16;;;;;;;;;;;;;;;;;;4969357;28;20365;-59
2020/12/01 09:47:46;;;;;;;;;;;;;;;;;;4967207;28;19930;-60
2020/12/01 09:50:13;;;;;;;;;;;;;;;;;;4969915;28;20025;-60
2020/12/01 09:52:54;;;;;;;;;;;;;;;;;;4966158;28;19936;-60
2020/12/01 09:55:38;;;;;;;;;;;;;;;;;;4971696;28;19930;-61
2020/12/01 09:58:14;;;;;;;;;;;;;;;;;;4968481;28;19968;-60
2020/12/01 10:02:36;;;;;;;;;;;;;;;;;;4966836;28;20290;-59
2020/12/01 10:09:14;;;;;;;;;;;;;;;;;;4970442;28;19937;-59
2020/12/01 10:25:54;;;;;;;;;;;;;;;;;;4972815;28;20025;-60
2020/12/01 10:34:11;;;;;;;;;;;;;;;;;;4971386;28;20445;-59
2020/12/01 10:36:38;;;;;;;;;;;;;;;;;;4972625;28;19933;-59
2020/12/01 10:39:05;;;;;;;;;;;;;;;;;;4968611;28;20182;-60
2020/12/01 10:41:33;;;;;;;;;;;;;;;;;;4974189;28;19938;-59
2020/12/01 10:44:01;;;;;;;;;;;;;;;;;;4974875;28;19957;-59
2020/12/01 10:46:29;;;;;;;;;;;;;;;;;;4974294;28;20401;-60
2020/12/01 10:48:56;;;;;;;;;;;;;;;;;;4972830;28;19970;-59
2020/12/01 10:51:23;;;;;;;;;;;;;;;;;;4974447;28;20374;-59
2020/12/01 10:53:50;;;;;;;;;;;;;;;;;;4973199;28;19988;-60
2020/12/01 10:56:18;;;;;;;;;;;;;;;;;;4972810;28;19926;-59
2020/12/01 10:58:45;;;;;;;;;;;;;;;;;;4972901;28;20077;-60
2020/12/01 11:01:12;;;;;;;;;;;;;;;;;;4972620;28;20484;-59
2020/12/01 11:03:39;;;;;;;;;;;;;;;;;;4974213;28;20015;-60
2020/12/01 11:06:07;;;;;;;;;;;;;;;;;;4973440;28;20016;-60
2020/12/01 11:08:34;;;;;;;;;;;;;;;;;;4974310;28;19930;-60
2020/12/01 11:11:05;;;;;;;;;;;;;;;;;;4973777;28;19937;-59
2020/12/01 11:13:32;;;;;;;;;;;;;;;;;;4973804;28;19969;-60
2020/12/01 11:15:59;;;;;;;;;;;;;;;;;;4973455;28;20335;-62
2020/12/01 11:18:26;;;;;;;;;;;;;;;;;;4973740;28;19981;-60
2020/12/01 11:20:54;;;;;;;;;;;;;;;;;;4973181;28;19934;-61
2020/12/01 11:23:21;;;;;;;;;;;;;;;;;;4971411;28;20509;-62
2020/12/01 11:25:48;;;;;;;;;;;;;;;;;;4967521;28;19977;-61
2020/12/01 11:28:15;;;;;;;;;;;;;;;;;;4968397;28;20008;-61
2020/12/01 11:30:43;;;;;;;;;;;;;;;;;;4971199;28;19937;-61
2020/12/01 11:33:10;;;;;;;;;;;;;;;;;;4970529;28;20460;-61
2020/12/01 11:35:37;;;;;;;;;;;;;;;;;;4959579;28;20700;-61
2020/12/01 11:38:04;;;;;;;;;;;;;;;;;;4965306;28;19949;-61
2020/12/01 11:40:31;;;;;;;;;;;;;;;;;;4965499;28;19926;-60
2020/12/01 11:42:59;;;;;;;;;;;;;;;;;;4970014;28;19993;-61
2020/12/01 11:45:26;;;;;;;;;;;;;;;;;;4969312;28;19934;-60
2020/12/01 11:47:53;;;;;;;;;;;;;;;;;;4967654;28;20005;-60
2020/12/01 11:50:21;;;;;;;;;;;;;;;;;;4968685;28;19940;-60
2020/12/01 11:52:48;;;;;;;;;;;;;;;;;;4969047;28;20473;-61
2020/12/01 11:55:22;;;;;;;;;;;;;;;;;;4968039;28;20023;-60
2020/12/01 11:57:49;;;;;;;;;;;;;;;;;;4967399;28;19926;-60
2020/12/01 12:00:17;;;;;;;;;;;;;;;;;;4970299;28;20378;-60
2020/12/01 12:02:44;;;;;;;;;;;;;;;;;;4966655;28;20022;-60
2020/12/01 12:05:11;;;;;;;;;;;;;;;;;;4969219;28;20004;-60
2020/12/01 12:07:38;;;;;;;;;;;;;;;;;;4964877;28;19984;-59
2020/12/01 12:10:06;;;;;;;;;;;;;;;;;;4969392;28;19933;-60
2020/12/01 12:12:33;;;;;;;;;;;;;;;;;;4963775;28;19930;-60
2020/12/01 12:15:01;;;;;;;;;;;;;;;;;;4969155;28;20288;-60
2020/12/01 12:17:28;;;;;;;;;;;;;;;;;;4968802;28;19927;-60
2020/12/01 12:19:55;;;;;;;;;;;;;;;;;;4971174;28;20425;-60
2020/12/01 12:22:23;;;;;;;;;;;;;;;;;;4970101;28;20040;-60
2020/12/01 12:24:50;;;;;;;;;;;;;;;;;;4970633;28;19934;-61
2020/12/01 12:27:17;;;;;;;;;;;;;;;;;;4970007;28;19938;-61
2020/12/01 12:29:45;;;;;;;;;;;;;;;;;;4969990;28;19926;-60
2020/12/01 12:32:12;;;;;;;;;;;;;;;;;;4971157;28;19977;-61
2020/12/01 12:34:39;;;;;;;;;;;;;;;;;;4970000;28;20286;-60
2020/12/01 12:37:07;;;;;;;;;;;;;;;;;;4968093;28;19930;-61
2020/12/01 12:39:34;;;;;;;;;;;;;;;;;;4970295;28;19974;-60
2020/12/01 12:42:01;;;;;;;;;;;;;;;;;;4969753;28;20018;-60
2020/12/01 12:44:28;;;;;;;;;;;;;;;;;;4970142;28;19949;-61
2020/12/01 12:46:59;;;;;;;;;;;;;;;;;;4970197;28;19930;-60
2020/12/01 12:49:26;;;;;;;;;;;;;;;;;;4970513;28;19930;-60
2020/12/01 12:51:54;;;;;;;;;;;;;;;;;;4970250;28;19930;-60
2020/12/01 12:54:21;;;;;;;;;;;;;;;;;;4970223;28;19953;-62
2020/12/01 12:56:48;;;;;;;;;;;;;;;;;;4961048;28;20358;-63
2020/12/01 12:59:16;;;;;;;;;;;;;;;;;;4969899;28;20350;-62
2020/12/01 13:01:45;;;;;;;;;;;;;;;;;;4970647;28;20021;-62
2020/12/01 13:04:13;;;;;;;;;;;;;;;;;;4970479;28;19926;-62
2020/12/01 13:06:40;;;;;;;;;;;;;;;;;;4969664;28;20462;-62
2020/12/01 13:09:07;;;;;;;;;;;;;;;;;;4970640;28;20107;-61
2020/12/01 13:11:35;;;;;;;;;;;;;;;;;;4970004;28;20033;-61
2020/12/01 13:14:02;;;;;;;;;;;;;;;;;;4969725;28;20384;-58
2020/12/01 13:16:30;;;;;;;;;;;;;;;;;;4969541;28;19937;-63
2020/12/01 13:18:57;;;;;;;;;;;;;;;;;;4969762;28;19933;-62
2020/12/01 13:21:24;;;;;;;;;;;;;;;;;;4969341;28;20370;-62
2020/12/01 13:23:52;;;;;;;;;;;;;;;;;;4968675;28;20227;-61
2020/12/01 13:26:19;;;;;;;;;;;;;;;;;;4963931;28;20662;-64
2020/12/01 13:28:47;;;;;;;;;;;;;;;;;;4966599;28;19949;-61
2020/12/01 13:31:14;;;;;;;;;;;;;;;;;;4966675;28;19930;-62
2020/12/01 13:33:43;;;;;;;;;;;;;;;;;;4968591;28;19930;-61
2020/12/01 13:36:11;;;;;;;;;;;;;;;;;;4969508;28;19934;-61
2020/12/01 13:38:38;;;;;;;;;;;;;;;;;;4970207;28;20379;-61
2020/12/01 13:41:05;;;;;;;;;;;;;;;;;;4969461;28;19996;-61
2020/12/01 13:43:33;;;;;;;;;;;;;;;;;;4968837;28;19976;-61
2020/12/01 13:46:00;;;;;;;;;;;;;;;;;;4967651;28;20396;-61
2020/12/01 13:48:27;;;;;;;;;;;;;;;;;;4965337;28;19934;-61
2020/12/01 13:50:55;;;;;;;;;;;;;;;;;;4965995;28;19930;-61
2020/12/01 13:53:22;;;;;;;;;;;;;;;;;;4966310;28;19934;-62
2020/12/01 13:55:51;;;;;;;;;;;;;;;;;;4964347;28;19930;-61
2020/12/01 13:58:18;;;;;;;;;;;;;;;;;;4965585;28;20366;-62
2020/12/01 14:00:45;;;;;;;;;;;;;;;;;;4970354;28;20826;-61
2020/12/01 14:03:13;;;;;;;;;;;;;;;;;;4969313;28;20346;-60
2020/12/01 14:05:40;;;;;;;;;;;;;;;;;;4969640;28;19945;-61
2020/12/01 14:08:07;;;;;;;;;;;;;;;;;;4970190;28;20232;-63
2020/12/01 14:10:35;;;;;;;;;;;;;;;;;;4969416;28;19934;-61
2020/12/01 14:13:03;;;;;;;;;;;;;;;;;;4969325;28;20398;-61
2020/12/01 14:15:31;;;;;;;;;;;;;;;;;;4969523;28;19969;-61
2020/12/01 14:17:58;;;;;;;;;;;;;;;;;;4969679;28;19930;-61
2020/12/01 14:20:26;;;;;;;;;;;;;;;;;;4969615;28;20294;-61
2020/12/01 14:22:53;;;;;;;;;;;;;;;;;;4969548;28;19977;-61
2020/12/01 14:25:20;;;;;;;;;;;;;;;;;;4969818;28;19952;-60
2020/12/01 14:27:48;;;;;;;;;;;;;;;;;;4969448;28;20467;-62
2020/12/01 14:30:15;;;;;;;;;;;;;;;;;;4970750;28;20224;-61
2020/12/01 14:32:42;;;;;;;;;;;;;;;;;;4959717;28;20337;-62
2020/12/01 14:35:09;;;;;;;;;;;;;;;;;;4969568;28;20032;-62
2020/12/01 14:37:37;;;;;;;;;;;;;;;;;;4970699;28;19937;-61
2020/12/01 14:40:06;;;;;;;;;;;;;;;;;;4970311;28;19930;-62
2020/12/01 14:42:33;;;;;;;;;;;;;;;;;;4968988;28;20043;-61
2020/12/01 14:45:00;;;;;;;;;;;;;;;;;;4966588;28;19930;-60
2020/12/01 14:47:28;;;;;;;;;;;;;;;;;;4961434;28;19970;-60
2020/12/01 14:49:55;;;;;;;;;;;;;;;;;;4951731;28;19964;-61
2020/12/01 14:52:22;;;;;;;;;;;;;;;;;;4963441;28;19930;-61
2020/12/01 14:54:49;;;;;;;;;;;;;;;;;;4962120;28;19997;-61
2020/12/01 14:57:17;;;;;;;;;;;;;;;;;;4966802;28;20375;-61
2020/12/01 14:59:44;;;;;;;;;;;;;;;;;;4956646;28;20391;-63
2020/12/01 15:02:11;;;;;;;;;;;;;;;;;;4964408;28;20394;-62
2020/12/01 15:04:38;;;;;;;;;;;;;;;;;;4970510;28;19933;-61
2020/12/01 15:07:06;;;;;;;;;;;;;;;;;;4963740;28;20409;-63
2020/12/01 15:09:33;;;;;;;;;;;;;;;;;;4964472;28;19930;-61
2020/12/01 15:12:00;;;;;;;;;;;;;;;;;;4972460;28;19948;-61
2020/12/01 15:14:28;;;;;;;;;;;;;;;;;;4972416;28;19937;-62
2020/12/01 15:16:55;;;;;;;;;;;;;;;;;;4972300;28;19926;-62
2020/12/01 15:19:22;;;;;;;;;;;;;;;;;;4972544;28;19997;-61
2020/12/01 15:21:50;;;;;;;;;;;;;;;;;;4972111;28;19930;-62
2020/12/01 15:24:17;;;;;;;;;;;;;;;;;;4974397;28;20310;-63
2020/12/01 15:26:45;;;;;;;;;;;;;;;;;;4970222;28;19936;-61
2020/12/01 15:29:12;;;;;;;;;;;;;;;;;;4969554;28;20413;-61
2020/12/01 15:31:39;;;;;;;;;;;;;;;;;;4966876;28;19929;-61
2020/12/01 15:34:06;;;;;;;;;;;;;;;;;;4972033;28;20238;-61
2020/12/01 15:36:34;;;;;;;;;;;;;;;;;;4969474;28;19930;-61
2020/12/01 15:39:01;;;;;;;;;;;;;;;;;;4971488;28;19940;-62
2020/12/01 15:41:29;;;;;;;;;;;;;;;;;;4972576;28;19930;-60
2020/12/01 15:43:56;;;;;;;;;;;;;;;;;;4970370;28;19930;-64
2020/12/01 15:46:24;;;;;;;;;;;;;;;;;;4972884;28;19965;-61
2020/12/01 15:48:51;;;;;;;;;;;;;;;;;;4968580;28;19934;-62
2020/12/01 15:51:18;;;;;;;;;;;;;;;;;;4971003;28;20054;-62
2020/12/01 15:53:46;;;;;;;;;;;;;;;;;;4972196;28;19992;-61
2020/12/01 15:56:13;;;;;;;;;;;;;;;;;;4970361;28;19973;-61
2020/12/01 15:58:41;;;;;;;;;;;;;;;;;;4967603;28;20747;-60
2020/12/01 16:01:08;;;;;;;;;;;;;;;;;;4968818;28;20340;-61
2020/12/01 16:03:36;;;;;;;;;;;;;;;;;;4970387;28;19926;-60
2020/12/01 16:06:03;;;;;;;;;;;;;;;;;;4982212;28;20033;-63
2020/12/01 16:08:30;;;;;;;;;;;;;;;;;;4974368;28;19930;-63
2020/12/01 16:10:58;;;;;;;;;;;;;;;;;;4970489;28;19930;-62
2020/12/01 16:13:25;;;;;;;;;;;;;;;;;;4981831;28;19926;-61
2020/12/01 16:15:52;;;;;;;;;;;;;;;;;;4971574;28;20238;-60
2020/12/01 16:18:19;;;;;;;;;;;;;;;;;;4980260;28;19938;-60
2020/12/01 16:20:47;;;;;;;;;;;;;;;;;;4977627;28;19930;-61
2020/12/01 16:23:14;;;;;;;;;;;;;;;;;;4974044;28;19926;-60
2020/12/01 16:25:41;;;;;;;;;;;;;;;;;;4969988;28;19941;-61
2020/12/01 16:28:09;;;;;;;;;;;;;;;;;;4970920;28;20286;-60
2020/12/01 16:30:36;;;;;;;;;;;;;;;;;;4971699;28;20242;-61
2020/12/01 16:33:04;;;;;;;;;;;;;;;;;;4974608;28;19937;-64
2020/12/01 16:35:31;;;;;;;;;;;;;;;;;;4970042;28;19930;-63
2020/12/01 16:37:58;;;;;;;;;;;;;;;;;;4971232;28;19930;-61
2020/12/01 16:40:26;;;;;;;;;;;;;;;;;;4974342;28;19965;-61
2020/12/01 16:42:53;;;;;;;;;;;;;;;;;;4970565;28;20359;-60
2020/12/01 16:45:20;;;;;;;;;;;;;;;;;;4970463;28;20409;-61
2020/12/01 16:47:48;;;;;;;;;;;;;;;;;;4969003;28;19967;-60
2020/12/01 16:50:15;;;;;;;;;;;;;;;;;;4967757;28;20410;-62
2020/12/01 16:52:42;;;;;;;;;;;;;;;;;;4972079;28;19926;-60
2020/12/01 16:55:10;;;;;;;;;;;;;;;;;;4968006;28;20025;-60
2020/12/01 16:57:37;;;;;;;;;;;;;;;;;;4970724;28;19930;-60
2020/12/01 17:00:04;;;;;;;;;;;;;;;;;;4970268;28;19929;-63
2020/12/01 17:02:32;;;;;;;;;;;;;;;;;;4970118;28;19938;-61
2020/12/01 17:04:59;;;;;;;;;;;;;;;;;;4969844;28;19953;-63
2020/12/01 17:07:27;;;;;;;;;;;;;;;;;;4968903;28;19954;-60
2020/12/01 17:09:54;;;;;;;;;;;;;;;;;;4970273;28;19930;-60
2020/12/01 17:12:21;;;;;;;;;;;;;;;;;;4969157;28;19974;-62
2020/12/01 17:14:48;;;;;;;;;;;;;;;;;;4969930;28;20455;-62
2020/12/01 17:17:15;;;;;;;;;;;;;;;;;;4969439;28;19930;-60
2020/12/01 17:19:43;;;;;;;;;;;;;;;;;;4969805;28;19973;-60